Time;durP1;ratioP1;P1;durP2;ratioP2;P2;SDS_P1;SDS_P2;PMS_P1;PMS_P2;Temp;Humidity;BMP_temperature;BMP_pressure;BME280_temperature;BME280_humidity;BME280_pressure;Samples;Min_cycle;Max_cycle;Signal;HPM_P1;HPM_P2
2021/03/09 00:00:26;;;;;;;11.35;3.92;;;16.50;40.20;;;;;;1042035;28;20075;-77
2021/03/09 00:00:57;;;;;;;13.82;3.92;;;16.50;40.00;;;;;;1042245;28;20093;-79
2021/03/09 00:01:29;;;;;;;12.55;3.80;;;16.50;39.70;;;;;;1046300;28;20032;-76
2021/03/09 00:02:00;;;;;;;10.85;3.70;;;16.40;40.00;;;;;;1046900;28;20474;-78
2021/03/09 00:02:32;;;;;;;12.32;4.38;;;16.40;40.20;;;;;;1041765;28;20017;-78
2021/03/09 00:03:04;;;;;;;14.93;4.47;;;16.40;40.50;;;;;;1044891;28;20167;-78
2021/03/09 00:03:35;;;;;;;11.43;3.80;;;16.40;40.80;;;;;;1040527;28;20033;-78
2021/03/09 00:04:07;;;;;;;12.60;3.85;;;16.40;40.90;;;;;;1040417;28;20087;-77
2021/03/09 00:04:38;;;;;;;13.50;3.63;;;16.30;40.90;;;;;;1037496;28;20029;-75
2021/03/09 00:05:10;;;;;;;13.40;3.70;;;16.20;41.30;;;;;;1043858;28;20106;-75
2021/03/09 00:05:42;;;;;;;15.00;4.05;;;16.20;41.50;;;;;;1043244;28;20049;-78
2021/03/09 00:06:13;;;;;;;11.68;3.80;;;16.20;41.70;;;;;;1045254;28;20028;-75
2021/03/09 00:06:45;;;;;;;11.45;3.80;;;16.10;41.80;;;;;;1048185;28;20013;-77
2021/03/09 00:07:16;;;;;;;14.02;3.85;;;16.10;42.10;;;;;;1046708;28;20031;-77
2021/03/09 00:07:48;;;;;;;15.07;3.90;;;16.10;41.30;;;;;;1044555;28;20036;-78
2021/03/09 00:08:19;;;;;;;12.18;3.80;;;16.00;41.40;;;;;;1045182;28;20350;-78
2021/03/09 00:08:50;;;;;;;12.77;4.00;;;16.10;41.50;;;;;;1044450;28;20108;-75
2021/03/09 00:09:22;;;;;;;12.50;3.53;;;16.20;41.10;;;;;;1046629;28;20027;-78
2021/03/09 00:09:53;;;;;;;11.60;3.83;;;16.10;41.10;;;;;;1049198;28;20017;-75
2021/03/09 00:10:25;;;;;;;11.02;3.63;;;16.00;41.00;;;;;;1047839;28;20114;-76
2021/03/09 00:10:56;;;;;;;10.93;3.55;;;16.00;40.90;;;;;;1045722;28;20024;-77
2021/03/09 00:11:28;;;;;;;9.00;3.50;;;16.00;40.70;;;;;;1045095;28;20053;-76
2021/03/09 00:11:59;;;;;;;12.25;4.10;;;15.90;41.10;;;;;;1045405;28;20021;-76
2021/03/09 00:12:30;;;;;;;16.08;3.90;;;15.80;41.40;;;;;;1045028;28;20021;-76
2021/03/09 00:13:02;;;;;;;10.98;3.65;;;15.80;41.60;;;;;;1045373;28;20027;-76
2021/03/09 00:13:33;;;;;;;10.25;3.72;;;15.80;41.00;;;;;;1041238;28;20025;-76
2021/03/09 00:14:05;;;;;;;12.05;4.00;;;15.80;41.00;;;;;;1041423;28;20021;-75
2021/03/09 00:14:36;;;;;;;9.20;3.25;;;15.80;41.10;;;;;;1042643;28;20018;-76
2021/03/09 00:15:08;;;;;;;16.20;3.45;;;15.70;41.30;;;;;;1045376;28;20528;-76
2021/03/09 00:15:40;;;;;;;11.85;3.67;;;15.70;41.60;;;;;;1045430;28;20028;-76
2021/03/09 00:16:11;;;;;;;13.23;3.80;;;15.60;41.60;;;;;;1049065;28;20448;-76
2021/03/09 00:16:43;;;;;;;10.05;3.58;;;15.70;41.30;;;;;;1046775;28;20343;-76
2021/03/09 00:17:14;;;;;;;12.48;3.50;;;15.60;41.40;;;;;;1039094;28;20309;-76
2021/03/09 00:17:45;;;;;;;11.48;3.65;;;15.60;41.40;;;;;;1037181;28;20017;-76
2021/03/09 00:18:17;;;;;;;9.32;3.38;;;15.60;41.20;;;;;;1041473;28;20014;-76
2021/03/09 00:18:48;;;;;;;8.77;3.38;;;15.60;41.40;;;;;;1044445;28;20021;-76
2021/03/09 00:19:19;;;;;;;10.65;3.70;;;15.50;41.70;;;;;;1045633;28;20112;-77
2021/03/09 00:19:51;;;;;;;13.88;4.03;;;15.50;41.70;;;;;;1049496;28;20427;-76
2021/03/09 00:20:22;;;;;;;11.68;3.72;;;15.50;41.90;;;;;;1049600;28;20027;-76
2021/03/09 00:20:54;;;;;;;11.38;3.40;;;15.50;42.10;;;;;;1045899;28;20110;-76
2021/03/09 00:21:25;;;;;;;13.60;3.88;;;15.50;42.20;;;;;;1049044;28;20070;-75
2021/03/09 00:21:57;;;;;;;9.88;3.65;;;15.40;42.30;;;;;;1047141;28;20053;-76
2021/03/09 00:22:28;;;;;;;11.43;3.90;;;15.40;42.10;;;;;;1045155;28;20123;-76
2021/03/09 00:23:00;;;;;;;12.70;3.70;;;15.40;42.10;;;;;;1045033;28;20787;-75
2021/03/09 00:23:31;;;;;;;16.70;3.63;;;15.40;42.20;;;;;;1041165;28;20017;-76
2021/03/09 00:24:03;;;;;;;13.60;3.47;;;15.30;42.40;;;;;;1036950;28;20025;-76
2021/03/09 00:24:34;;;;;;;11.32;3.78;;;15.30;42.80;;;;;;1040178;28;20028;-76
2021/03/09 00:25:06;;;;;;;11.35;3.55;;;15.30;43.20;;;;;;1041925;28;20017;-76
2021/03/09 00:25:38;;;;;;;12.23;3.70;;;15.30;43.40;;;;;;1045334;28;20020;-75
2021/03/09 00:26:09;;;;;;;11.07;3.42;;;15.30;43.70;;;;;;1045059;28;20017;-76
2021/03/09 00:26:40;;;;;;;14.35;4.18;;;15.30;43.70;;;;;;1042483;28;20009;-75
2021/03/09 00:27:12;;;;;;;11.63;3.60;;;15.30;43.60;;;;;;1043208;28;20014;-76
2021/03/09 00:27:43;;;;;;;12.70;3.72;;;15.40;43.40;;;;;;1045023;28;20922;-76
2021/03/09 00:28:20;;;;;;;13.20;3.95;;;15.40;43.50;;;;;;1049494;28;20016;-76
2021/03/09 00:28:51;;;;;;;11.02;3.60;;;15.50;43.20;;;;;;1043189;28;20106;-76
2021/03/09 00:29:23;;;;;;;14.35;3.72;;;15.80;42.90;;;;;;1046525;28;20009;-76
2021/03/09 00:29:54;;;;;;;13.77;3.83;;;15.80;42.80;;;;;;1049633;28;20013;-75
2021/03/09 00:30:25;;;;;;;12.30;3.45;;;15.80;42.80;;;;;;1046840;28;20557;-76
2021/03/09 00:30:57;;;;;;;10.38;3.63;;;15.80;43.00;;;;;;1046724;28;20082;-74
2021/03/09 00:31:29;;;;;;;12.93;3.38;;;15.60;43.20;;;;;;1045413;28;20427;-74
2021/03/09 00:32:01;;;;;;;16.15;4.03;;;15.50;43.10;;;;;;1046187;28;20474;-76
2021/03/09 00:32:32;;;;;;;11.02;3.72;;;15.50;43.30;;;;;;1049080;28;20097;-76
2021/03/09 00:33:04;;;;;;;11.18;3.58;;;15.40;43.40;;;;;;1050166;28;20024;-76
2021/03/09 00:33:35;;;;;;;12.10;3.95;;;15.40;43.60;;;;;;1044772;28;20048;-76
2021/03/09 00:34:07;;;;;;;13.90;3.90;;;15.30;43.90;;;;;;1044270;28;20459;-76
2021/03/09 00:34:38;;;;;;;12.02;3.75;;;15.30;44.00;;;;;;1045690;28;20024;-76
2021/03/09 00:35:10;;;;;;;13.90;4.05;;;15.30;44.20;;;;;;1045367;28;20021;-76
2021/03/09 00:35:42;;;;;;;10.60;3.88;;;15.30;44.30;;;;;;1044933;28;20018;-77
2021/03/09 00:36:13;;;;;;;11.65;3.75;;;15.20;44.20;;;;;;1048835;28;20017;-76
2021/03/09 00:36:45;;;;;;;10.50;3.70;;;15.20;44.30;;;;;;1045740;28;20508;-77
2021/03/09 00:37:16;;;;;;;11.95;3.70;;;15.20;45.10;;;;;;1048844;28;20020;-76
2021/03/09 00:37:48;;;;;;;13.75;3.90;;;15.20;44.50;;;;;;1045240;28;20027;-75
2021/03/09 00:38:19;;;;;;;13.43;3.67;;;15.20;44.40;;;;;;1045222;28;20017;-75
2021/03/09 00:38:50;;;;;;;15.50;3.75;;;15.20;44.40;;;;;;1045062;28;20025;-74
2021/03/09 00:39:22;;;;;;;11.63;3.50;;;15.10;45.10;;;;;;1049035;28;20016;-76
2021/03/09 00:39:53;;;;;;;16.52;4.40;;;15.10;44.80;;;;;;1049410;28;20102;-76
2021/03/09 00:40:25;;;;;;;11.60;3.80;;;15.10;44.90;;;;;;1048524;28;20009;-76
2021/03/09 00:40:56;;;;;;;11.52;3.72;;;15.10;44.90;;;;;;1045530;28;20028;-77
2021/03/09 00:41:27;;;;;;;10.98;3.47;;;15.00;45.00;;;;;;1045553;28;20012;-76
2021/03/09 00:41:59;;;;;;;13.05;3.92;;;15.00;45.10;;;;;;1053481;28;20020;-76
2021/03/09 00:42:30;;;;;;;14.32;4.45;;;15.00;45.30;;;;;;1053589;28;20027;-75
2021/03/09 00:43:02;;;;;;;13.63;4.00;;;15.00;45.10;;;;;;1053495;28;20020;-77
2021/03/09 00:43:33;;;;;;;15.73;3.97;;;15.00;45.20;;;;;;1050197;28;20016;-76
2021/03/09 00:44:05;;;;;;;12.40;3.60;;;15.00;45.20;;;;;;1041095;28;20136;-76
2021/03/09 00:44:36;;;;;;;13.02;3.72;;;15.00;45.30;;;;;;1036951;28;20352;-77
2021/03/09 00:45:08;;;;;;;15.23;3.60;;;15.00;45.50;;;;;;1037003;28;20520;-77
2021/03/09 00:45:40;;;;;;;12.05;3.65;;;15.00;45.90;;;;;;1036438;28;20032;-77
2021/03/09 00:46:12;;;;;;;11.02;3.88;;;15.00;45.60;;;;;;1038972;28;20013;-76
2021/03/09 00:46:43;;;;;;;12.38;3.47;;;15.00;45.60;;;;;;1045022;28;20059;-77
2021/03/09 00:47:14;;;;;;;9.15;3.53;;;15.00;45.80;;;;;;1041829;28;20109;-76
2021/03/09 00:47:46;;;;;;;10.80;3.50;;;15.00;45.80;;;;;;1048512;28;20012;-76
2021/03/09 00:48:17;;;;;;;12.07;3.67;;;14.90;46.00;;;;;;1041267;28;20427;-76
2021/03/09 00:48:49;;;;;;;11.63;3.30;;;14.90;46.00;;;;;;1042923;28;20021;-77
2021/03/09 00:49:20;;;;;;;13.15;3.65;;;14.90;46.00;;;;;;1040911;28;20017;-76
2021/03/09 00:49:52;;;;;;;12.20;3.50;;;15.00;45.70;;;;;;1045687;28;20040;-76
2021/03/09 00:50:23;;;;;;;11.48;3.50;;;15.00;45.80;;;;;;1049346;28;20082;-77
2021/03/09 00:50:54;;;;;;;15.23;3.85;;;15.00;45.80;;;;;;1043289;28;20049;-76
2021/03/09 00:51:26;;;;;;;14.63;3.55;;;15.10;45.80;;;;;;1048866;28;20082;-77
2021/03/09 00:51:57;;;;;;;13.27;4.00;;;15.20;45.60;;;;;;1045172;28;20362;-76
2021/03/09 00:52:28;;;;;;;13.10;4.10;;;15.20;45.80;;;;;;1040784;28;20022;-75
2021/03/09 00:53:00;;;;;;;10.05;3.58;;;15.20;46.00;;;;;;1041230;28;20017;-76
2021/03/09 00:53:31;;;;;;;10.18;3.78;;;15.10;45.80;;;;;;1041700;28;20466;-76
2021/03/09 00:54:03;;;;;;;11.00;3.88;;;15.10;45.90;;;;;;1044748;28;20031;-76
2021/03/09 00:54:34;;;;;;;11.85;3.58;;;15.20;45.80;;;;;;1048059;28;21019;-78
2021/03/09 00:55:06;;;;;;;13.70;3.63;;;15.10;46.00;;;;;;1048252;28;20780;-76
2021/03/09 00:55:38;;;;;;;13.07;3.72;;;15.10;45.90;;;;;;1045340;28;20411;-77
2021/03/09 00:56:09;;;;;;;12.00;3.80;;;15.00;45.90;;;;;;1045471;28;20030;-77
2021/03/09 00:56:41;;;;;;;14.65;3.90;;;15.00;46.30;;;;;;1045200;28;20071;-77
2021/03/09 00:57:12;;;;;;;11.60;3.67;;;15.10;46.40;;;;;;1045009;28;20446;-77
2021/03/09 00:57:43;;;;;;;10.40;3.33;;;15.20;46.20;;;;;;1045374;28;20021;-76
2021/03/09 00:58:15;;;;;;;11.60;3.38;;;15.20;46.40;;;;;;1041569;28;20116;-77
2021/03/09 00:58:46;;;;;;;12.77;3.88;;;15.10;46.40;;;;;;1041858;28;20013;-77
2021/03/09 00:59:18;;;;;;;12.80;3.72;;;15.10;46.70;;;;;;1041133;28;20021;-76
2021/03/09 00:59:49;;;;;;;12.15;3.80;;;15.20;46.50;;;;;;1041065;28;20374;-76
2021/03/09 01:00:21;;;;;;;12.75;4.10;;;15.20;46.60;;;;;;1041031;28;20091;-77
2021/03/09 01:00:52;;;;;;;14.65;3.83;;;15.10;46.60;;;;;;1041056;28;20020;-76
2021/03/09 01:01:24;;;;;;;10.70;3.67;;;15.10;46.90;;;;;;1041023;28;20014;-76
2021/03/09 01:01:55;;;;;;;13.90;3.75;;;15.00;47.00;;;;;;1041009;28;20021;-76
2021/03/09 01:02:26;;;;;;;12.52;3.47;;;15.00;47.20;;;;;;1036870;28;20022;-76
2021/03/09 01:02:58;;;;;;;11.90;3.90;;;15.00;47.20;;;;;;1041293;28;20017;-76
2021/03/09 01:03:30;;;;;;;15.02;4.20;;;14.90;47.50;;;;;;1049408;28;20311;-75
2021/03/09 01:04:01;;;;;;;10.10;3.28;;;14.90;47.70;;;;;;1047462;28;20017;-76
2021/03/09 01:04:32;;;;;;;14.85;3.95;;;14.90;47.80;;;;;;1042313;28;20044;-77
2021/03/09 01:05:04;;;;;;;12.48;3.72;;;14.90;47.90;;;;;;1045576;28;20013;-76
2021/03/09 01:05:36;;;;;;;12.35;3.75;;;14.90;48.10;;;;;;1040515;28;20021;-77
2021/03/09 01:06:07;;;;;;;12.80;3.85;;;14.90;48.20;;;;;;1036894;28;20348;-77
2021/03/09 01:06:38;;;;;;;11.88;3.88;;;14.80;48.10;;;;;;1040800;28;20017;-76
2021/03/09 01:07:10;;;;;;;13.05;3.97;;;14.80;48.60;;;;;;1041390;28;20021;-76
2021/03/09 01:07:41;;;;;;;11.95;3.60;;;14.80;48.50;;;;;;1044348;28;20017;-77
2021/03/09 01:08:13;;;;;;;11.23;3.50;;;14.90;48.30;;;;;;1049273;28;20052;-77
2021/03/09 01:08:44;;;;;;;15.05;3.72;;;14.90;48.40;;;;;;1048867;28;20075;-76
2021/03/09 01:09:16;;;;;;;12.95;3.72;;;14.90;48.60;;;;;;1044815;28;20021;-76
2021/03/09 01:09:47;;;;;;;16.42;4.00;;;14.90;48.70;;;;;;1042161;28;20037;-76
2021/03/09 01:10:21;;;;;;;16.02;3.65;;;14.90;48.60;;;;;;1045515;28;20013;-76
2021/03/09 01:10:52;;;;;;;15.00;4.00;;;14.80;48.50;;;;;;1043904;28;20048;-76
2021/03/09 01:11:24;;;;;;;11.45;3.60;;;14.80;48.50;;;;;;1045100;28;20512;-77
2021/03/09 01:11:55;;;;;;;12.23;3.55;;;14.80;49.30;;;;;;1044917;28;20063;-77
2021/03/09 01:12:27;;;;;;;10.43;3.35;;;14.80;49.00;;;;;;1044495;28;20016;-76
2021/03/09 01:12:58;;;;;;;12.80;3.60;;;14.70;49.20;;;;;;1044415;28;20017;-78
2021/03/09 01:13:29;;;;;;;15.52;3.75;;;14.70;49.00;;;;;;1044335;28;20096;-77
2021/03/09 01:14:01;;;;;;;14.35;3.78;;;14.80;48.90;;;;;;1045251;28;20021;-77
2021/03/09 01:14:32;;;;;;;12.23;3.72;;;15.00;48.40;;;;;;1045092;28;20016;-77
2021/03/09 01:15:05;;;;;;;16.45;3.85;;;15.00;48.60;;;;;;1044855;28;21815;-77
2021/03/09 01:15:37;;;;;;;15.52;4.32;;;15.00;48.60;;;;;;1047489;28;20025;-77
2021/03/09 01:16:08;;;;;;;11.80;3.80;;;15.00;48.60;;;;;;1048492;28;20027;-78
2021/03/09 01:16:40;;;;;;;12.45;3.60;;;15.00;48.60;;;;;;1049291;28;20009;-77
2021/03/09 01:17:11;;;;;;;12.32;4.15;;;15.10;48.30;;;;;;1045165;28;20024;-77
2021/03/09 01:17:43;;;;;;;16.08;4.13;;;15.10;48.10;;;;;;1041255;28;20013;-78
2021/03/09 01:18:14;;;;;;;12.57;4.07;;;15.20;48.10;;;;;;1039444;28;20017;-77
2021/03/09 01:18:46;;;;;;;13.80;4.22;;;15.20;47.90;;;;;;1036928;28;20010;-77
2021/03/09 01:19:17;;;;;;;10.65;3.50;;;15.20;47.90;;;;;;1033228;28;20330;-77
2021/03/09 01:19:48;;;;;;;12.10;3.70;;;15.20;47.80;;;;;;1037487;28;20011;-77
2021/03/09 01:20:20;;;;;;;13.48;4.18;;;15.10;48.10;;;;;;1039198;28;20010;-78
2021/03/09 01:20:52;;;;;;;14.32;4.18;;;15.00;48.70;;;;;;1037932;28;20088;-78
2021/03/09 01:21:23;;;;;;;12.38;3.50;;;14.90;48.60;;;;;;1043153;28;20469;-77
2021/03/09 01:21:55;;;;;;;17.15;3.80;;;15.00;48.80;;;;;;1041006;28;20014;-77
2021/03/09 01:22:26;;;;;;;11.88;3.95;;;14.90;48.90;;;;;;1038905;28;20078;-77
2021/03/09 01:22:59;;;;;;;13.52;3.90;;;14.90;48.60;;;;;;1038382;28;20025;-77
2021/03/09 01:23:30;;;;;;;12.68;3.88;;;14.80;48.70;;;;;;1033405;28;20113;-77
2021/03/09 01:24:01;;;;;;;19.40;4.30;;;14.70;48.90;;;;;;1032963;28;20014;-77
2021/03/09 01:24:33;;;;;;;14.48;4.03;;;14.80;49.00;;;;;;1030370;28;20015;-78
2021/03/09 01:25:05;;;;;;;13.63;4.35;;;14.70;49.20;;;;;;1033233;28;20109;-77
2021/03/09 01:25:36;;;;;;;13.65;4.00;;;14.60;49.40;;;;;;1041126;28;20083;-77
2021/03/09 01:26:08;;;;;;;11.55;4.03;;;14.50;49.60;;;;;;1045078;28;20083;-77
2021/03/09 01:26:39;;;;;;;14.45;4.30;;;14.50;49.90;;;;;;1045214;28;20075;-77
2021/03/09 01:27:11;;;;;;;12.98;3.80;;;14.40;50.00;;;;;;1047728;28;20431;-76
2021/03/09 01:27:43;;;;;;;15.55;4.40;;;14.30;50.20;;;;;;1043823;28;20013;-77
2021/03/09 01:28:15;;;;;;;15.93;4.10;;;14.30;50.40;;;;;;1045225;28;20088;-77
2021/03/09 01:28:49;;;;;;;17.05;4.30;;;14.30;50.50;;;;;;1043603;28;20104;-77
2021/03/09 01:29:21;;;;;;;15.13;4.20;;;14.30;50.60;;;;;;1040824;28;20075;-77
2021/03/09 01:29:52;;;;;;;15.52;4.30;;;14.30;50.60;;;;;;1036851;28;20052;-77
2021/03/09 01:30:24;;;;;;;13.90;4.03;;;14.30;50.60;;;;;;1033728;28;20025;-77
2021/03/09 01:30:55;;;;;;;12.20;3.92;;;14.20;50.70;;;;;;1036875;28;20068;-78
2021/03/09 01:31:27;;;;;;;13.43;4.03;;;14.30;50.80;;;;;;1040201;28;20010;-78
2021/03/09 01:31:58;;;;;;;13.68;4.30;;;14.40;50.50;;;;;;1042746;28;20350;-77
2021/03/09 01:53:18;;;;;;;14.35;4.05;;;13.70;52.70;;;;;;1036834;28;20017;-79
2021/03/09 01:54:42;;;;;;;15.63;4.15;;;13.60;52.40;;;;;;1059373;27;20398;-77
2021/03/09 01:55:17;;;;;;;15.25;4.13;;;13.60;53.10;;;;;;1050101;28;20083;-76
2021/03/09 01:55:56;;;;;;;12.48;4.13;;;13.60;53.00;;;;;;1054554;28;20028;-77
2021/03/09 01:56:40;;;;;;;12.68;4.10;;;13.80;52.60;;;;;;1046646;28;20029;-76
2021/03/09 01:57:57;;;;;;;12.25;3.90;;;13.80;52.40;;;;;;1051884;28;20027;-77
2021/03/09 01:58:42;;;;;;;13.55;3.97;;;13.70;52.60;;;;;;1045263;28;20025;-77
2021/03/09 01:59:28;;;;;;;14.93;4.18;;;13.70;53.00;;;;;;1047769;28;20116;-76
2021/03/09 02:00:16;;;;;;;13.30;4.30;;;13.60;53.10;;;;;;1043766;28;20036;-78
2021/03/09 02:01:41;;;;;;;13.35;4.35;;;13.60;53.40;;;;;;1046851;28;20035;-77
2021/03/09 02:02:52;;;;;;;16.92;4.50;;;13.70;53.30;;;;;;1044267;28;20037;-77
2021/03/09 02:04:55;;;;;;;14.88;4.22;;;13.60;53.50;;;;;;1039765;28;20032;-76
2021/03/09 02:05:27;;;;;;;12.70;3.95;;;13.50;53.50;;;;;;1038220;28;20029;-76
2021/03/09 02:05:58;;;;;;;14.23;4.35;;;13.40;53.60;;;;;;1052322;28;20013;-77
2021/03/09 02:06:30;;;;;;;15.82;4.57;;;13.40;53.90;;;;;;1051151;28;20025;-77
2021/03/09 02:07:01;;;;;;;11.20;4.15;;;13.40;54.00;;;;;;1053475;28;20530;-76
2021/03/09 02:07:33;;;;;;;12.75;3.83;;;13.40;54.00;;;;;;1054147;28;20536;-77
2021/03/09 02:08:08;;;;;;;17.17;4.30;;;13.30;54.10;;;;;;1057922;28;20016;-77
2021/03/09 02:08:40;;;;;;;14.35;4.07;;;13.30;54.00;;;;;;1056538;28;20016;-77
2021/03/09 02:09:13;;;;;;;13.35;4.30;;;13.30;53.90;;;;;;1056458;28;20411;-76
2021/03/09 02:09:47;;;;;;;13.88;3.90;;;13.40;54.00;;;;;;1055260;28;20058;-77
2021/03/09 02:10:19;;;;;;;15.38;4.43;;;13.30;54.10;;;;;;1044008;28;20034;-76
2021/03/09 02:10:51;;;;;;;12.45;3.85;;;13.30;54.20;;;;;;1047691;28;20020;-77
2021/03/09 02:11:52;;;;;;;14.57;4.05;;;13.30;54.10;;;;;;1043997;28;20053;-76
2021/03/09 02:12:42;;;;;;;12.82;4.00;;;13.30;54.20;;;;;;1043840;28;20025;-76
2021/03/09 02:13:37;;;;;;;14.32;3.60;;;13.30;54.20;;;;;;1046674;28;20059;-77
2021/03/09 02:14:34;;;;;;;12.73;4.15;;;13.30;54.20;;;;;;1045635;28;20072;-77
2021/03/09 02:15:34;;;;;;;14.65;4.10;;;13.20;54.30;;;;;;1044040;28;20036;-77
2021/03/09 02:16:22;;;;;;;14.40;3.95;;;13.20;54.40;;;;;;1031410;28;20114;-77
2021/03/09 02:17:15;;;;;;;11.40;3.90;;;13.10;54.60;;;;;;1049041;28;20048;-78
2021/03/09 02:17:53;;;;;;;11.63;3.97;;;13.10;54.60;;;;;;1049902;28;20057;-77
2021/03/09 02:18:46;;;;;;;13.50;4.13;;;13.10;54.70;;;;;;1051302;28;20043;-77
2021/03/09 02:19:29;;;;;;;16.38;4.13;;;13.10;54.70;;;;;;1056675;28;20331;-77
2021/03/09 02:20:28;;;;;;;12.82;3.88;;;13.10;54.60;;;;;;1048899;28;20017;-77
2021/03/09 02:21:21;;;;;;;17.70;4.00;;;13.10;54.60;;;;;;1049312;28;20057;-77
2021/03/09 02:22:23;;;;;;;17.13;4.25;;;13.10;54.70;;;;;;1048209;28;20025;-77
2021/03/09 02:23:41;;;;;;;14.32;4.28;;;13.10;55.00;;;;;;1055468;28;20020;-77
2021/03/09 02:24:42;;;;;;;15.15;4.57;;;13.00;55.00;;;;;;1048165;28;20435;-77
2021/03/09 02:25:31;;;;;;;13.30;4.40;;;13.00;55.20;;;;;;1044579;28;20037;-78
2021/03/09 02:26:32;;;;;;;14.63;4.10;;;12.90;55.40;;;;;;1056441;28;20016;-78
2021/03/09 02:27:22;;;;;;;16.05;4.65;;;12.90;55.60;;;;;;1056403;28;20084;-77
2021/03/09 02:28:30;;;;;;;15.32;3.97;;;12.90;55.60;;;;;;1052914;28;20020;-77
2021/03/09 02:29:26;;;;;;;15.75;4.63;;;12.90;55.60;;;;;;1047844;28;20033;-77
2021/03/09 02:30:38;;;;;;;12.88;4.05;;;12.80;55.70;;;;;;1048311;28;20121;-77
2021/03/09 02:31:09;;;;;;;11.63;4.15;;;12.70;55.80;;;;;;1035532;28;20124;-77
2021/03/09 02:31:45;;;;;;;11.88;4.00;;;12.70;55.60;;;;;;1037462;28;20449;-77
2021/03/09 02:32:22;;;;;;;10.85;3.63;;;12.70;55.70;;;;;;1035622;28;20083;-78
2021/03/09 02:33:00;;;;;;;11.85;4.13;;;12.80;55.80;;;;;;1035340;28;20069;-77
2021/03/09 02:33:42;;;;;;;16.73;4.43;;;12.80;55.80;;;;;;1031624;28;20041;-77
2021/03/09 02:34:24;;;;;;;12.82;4.07;;;12.70;56.00;;;;;;1031158;28;20020;-77
2021/03/09 02:34:58;;;;;;;12.20;4.03;;;12.70;56.10;;;;;;1029900;28;20015;-77
2021/03/09 02:35:31;;;;;;;12.35;4.03;;;12.70;56.10;;;;;;1030944;28;20503;-77
2021/03/09 02:36:11;;;;;;;14.63;4.00;;;12.60;56.10;;;;;;1027411;28;20011;-76
2021/03/09 02:36:44;;;;;;;11.65;3.92;;;12.60;56.30;;;;;;1028576;28;20015;-77
2021/03/09 02:37:17;;;;;;;11.57;4.25;;;12.60;56.40;;;;;;1042971;28;20021;-77
2021/03/09 02:37:51;;;;;;;14.75;4.13;;;12.60;56.40;;;;;;1043698;28;20013;-77
2021/03/09 02:38:25;;;;;;;10.88;4.00;;;12.60;56.40;;;;;;1043727;28;20345;-77
2021/03/09 02:39:04;;;;;;;11.05;3.80;;;12.60;56.30;;;;;;1047235;28;20021;-78
2021/03/09 02:39:37;;;;;;;14.50;4.13;;;12.60;56.20;;;;;;1048117;28;20032;-77
2021/03/09 02:40:14;;;;;;;12.45;3.97;;;12.60;56.30;;;;;;1050141;28;20028;-78
2021/03/09 02:40:48;;;;;;;14.73;4.00;;;12.50;56.40;;;;;;1056043;28;20012;-77
2021/03/09 02:41:22;;;;;;;12.77;3.80;;;12.50;56.50;;;;;;1052252;28;20083;-77
2021/03/09 02:41:58;;;;;;;11.15;3.90;;;12.50;56.70;;;;;;1048086;28;20474;-78
2021/03/09 02:42:31;;;;;;;11.90;4.22;;;12.40;56.80;;;;;;1047451;28;20036;-78
2021/03/09 02:43:09;;;;;;;12.00;3.85;;;12.50;57.00;;;;;;1053456;28;20508;-78
2021/03/09 02:43:47;;;;;;;18.60;4.20;;;12.40;56.90;;;;;;1059094;28;20032;-78
2021/03/09 02:44:24;;;;;;;13.32;3.90;;;12.40;56.80;;;;;;1056509;28;20012;-79
2021/03/09 02:44:59;;;;;;;12.48;4.13;;;12.40;56.90;;;;;;1049127;28;20443;-78
2021/03/09 02:45:31;;;;;;;13.20;4.07;;;12.40;57.00;;;;;;1045701;28;20019;-79
2021/03/09 02:46:05;;;;;;;12.63;3.90;;;12.40;56.90;;;;;;1045795;28;20028;-79
2021/03/09 02:46:38;;;;;;;12.50;4.07;;;12.40;56.90;;;;;;1051419;28;20450;-77
2021/03/09 02:47:14;;;;;;;11.27;3.95;;;12.40;57.00;;;;;;1054805;28;20108;-79
2021/03/09 02:47:47;;;;;;;11.70;3.80;;;12.30;56.90;;;;;;1052319;28;20048;-78
2021/03/09 02:48:23;;;;;;;13.10;4.10;;;12.30;57.00;;;;;;1047679;28;20032;-78
2021/03/09 02:48:56;;;;;;;12.98;3.70;;;12.30;57.00;;;;;;1048066;28;20020;-78
2021/03/09 02:49:30;;;;;;;15.82;4.28;;;12.30;57.20;;;;;;1049471;28;20020;-78
2021/03/09 02:50:03;;;;;;;11.70;4.13;;;12.20;57.20;;;;;;1054118;28;20016;-77
2021/03/09 02:50:35;;;;;;;15.55;4.20;;;12.20;57.30;;;;;;1049547;28;20020;-78
2021/03/09 02:51:08;;;;;;;14.23;4.32;;;12.20;57.40;;;;;;1054699;28;20472;-78
2021/03/09 02:51:42;;;;;;;11.07;4.13;;;12.20;57.50;;;;;;1048188;28;20028;-78
2021/03/09 02:52:20;;;;;;;13.68;3.95;;;12.20;57.40;;;;;;1054551;28;20009;-78
2021/03/09 02:53:06;;;;;;;13.68;3.88;;;12.30;57.90;;;;;;1056538;28;20015;-78
2021/03/09 02:53:44;;;;;;;12.77;3.97;;;12.30;57.20;;;;;;1043936;28;20079;-79
2021/03/09 02:54:17;;;;;;;16.05;4.38;;;12.30;57.20;;;;;;1042064;28;20010;-79
2021/03/09 02:54:51;;;;;;;11.88;4.20;;;12.30;57.20;;;;;;1047403;28;20012;-78
2021/03/09 02:55:24;;;;;;;12.90;4.55;;;12.30;56.90;;;;;;1050069;28;20092;-77
2021/03/09 02:55:58;;;;;;;16.60;4.20;;;12.30;56.90;;;;;;1052390;28;20020;-78
2021/03/09 02:56:30;;;;;;;15.80;4.20;;;12.30;56.90;;;;;;1049581;28;20389;-78
2021/03/09 02:57:02;;;;;;;15.68;4.38;;;12.30;57.00;;;;;;1050684;28;20017;-79
2021/03/09 02:57:35;;;;;;;13.80;4.35;;;12.40;57.00;;;;;;1049210;28;20080;-78
2021/03/09 02:58:14;;;;;;;13.23;4.15;;;12.40;57.00;;;;;;1053002;28;20099;-78
2021/03/09 02:58:49;;;;;;;12.18;3.90;;;12.30;56.90;;;;;;1058967;28;20030;-78
2021/03/09 02:59:21;;;;;;;11.18;3.53;;;12.30;56.90;;;;;;1049796;28;20063;-78
2021/03/09 02:59:54;;;;;;;12.23;4.07;;;12.20;56.90;;;;;;1048225;28;20020;-79
2021/03/09 03:00:26;;;;;;;11.10;3.95;;;12.20;57.10;;;;;;1051252;28;20466;-79
2021/03/09 03:00:59;;;;;;;9.85;3.65;;;12.20;57.20;;;;;;1048838;28;20052;-78
2021/03/09 03:01:31;;;;;;;11.30;3.95;;;12.10;57.20;;;;;;1047242;28;20020;-78
2021/03/09 03:02:03;;;;;;;11.88;4.00;;;12.10;57.40;;;;;;1048928;28;20021;-79
2021/03/09 03:02:36;;;;;;;14.40;4.07;;;12.10;57.20;;;;;;1053992;28;20016;-78
2021/03/09 03:03:13;;;;;;;17.30;3.85;;;12.20;57.20;;;;;;1048147;28;20366;-78
2021/03/09 03:03:47;;;;;;;15.35;4.05;;;12.20;57.30;;;;;;1048052;28;20035;-77
2021/03/09 03:04:21;;;;;;;11.13;3.60;;;12.20;57.20;;;;;;1050513;28;20078;-77
2021/03/09 03:04:53;;;;;;;12.35;4.15;;;12.20;57.20;;;;;;1051847;28;20023;-78
2021/03/09 03:05:34;;;;;;;13.45;3.80;;;12.20;57.40;;;;;;1052105;28;20130;-78
2021/03/09 03:06:06;;;;;;;12.88;3.97;;;12.20;57.50;;;;;;1049614;28;20016;-79
2021/03/09 03:06:39;;;;;;;12.65;4.03;;;12.30;57.40;;;;;;1045434;28;20028;-78
2021/03/09 03:07:12;;;;;;;11.85;4.13;;;12.30;57.80;;;;;;1044984;28;20108;-77
2021/03/09 03:07:45;;;;;;;9.73;3.72;;;12.30;57.10;;;;;;1040972;28;20028;-77
2021/03/09 03:08:17;;;;;;;11.25;3.70;;;12.30;57.10;;;;;;1049364;28;20051;-78
2021/03/09 03:08:49;;;;;;;13.82;4.03;;;12.20;57.10;;;;;;1050346;28;20347;-78
2021/03/09 03:09:22;;;;;;;11.32;3.70;;;12.20;57.20;;;;;;1047148;28;20016;-79
2021/03/09 03:09:53;;;;;;;12.85;4.00;;;12.20;57.40;;;;;;1050804;28;20343;-78
2021/03/09 03:10:27;;;;;;;12.70;3.92;;;12.20;57.40;;;;;;1053562;28;20042;-77
2021/03/09 03:11:02;;;;;;;13.38;3.70;;;12.20;57.40;;;;;;1053406;28;20058;-75
2021/03/09 03:11:35;;;;;;;12.38;3.47;;;12.20;57.40;;;;;;1045280;28;20056;-80
2021/03/09 03:12:11;;;;;;;11.90;3.60;;;12.10;57.50;;;;;;1049228;28;20082;-80
2021/03/09 03:12:44;;;;;;;12.57;3.80;;;12.10;57.60;;;;;;1052232;28;20115;-79
2021/03/09 03:13:17;;;;;;;12.98;3.75;;;12.10;57.70;;;;;;1053501;28;20019;-77
2021/03/09 03:13:50;;;;;;;14.80;4.15;;;12.10;57.70;;;;;;1053348;28;20024;-77
2021/03/09 03:14:24;;;;;;;12.25;3.92;;;12.10;57.60;;;;;;1049087;28;20037;-77
2021/03/09 03:14:56;;;;;;;12.80;3.85;;;12.20;57.50;;;;;;1045005;28;20017;-77
2021/03/09 03:15:29;;;;;;;12.90;3.65;;;12.20;57.50;;;;;;1045093;28;20108;-77
2021/03/09 03:16:03;;;;;;;12.02;3.67;;;12.10;57.40;;;;;;1044819;28;20020;-78
2021/03/09 03:16:39;;;;;;;11.32;4.00;;;12.10;58.30;;;;;;1045168;28;20095;-78
2021/03/09 03:17:14;;;;;;;11.32;3.53;;;12.00;57.80;;;;;;1038938;28;20057;-79
2021/03/09 03:17:47;;;;;;;10.77;3.53;;;12.00;57.80;;;;;;1042595;28;20529;-79
2021/03/09 03:18:20;;;;;;;12.25;3.58;;;12.00;57.90;;;;;;1046004;28;20063;-78
2021/03/09 03:18:53;;;;;;;11.75;3.95;;;12.00;57.90;;;;;;1050710;28;20016;-79
2021/03/09 03:19:26;;;;;;;13.57;4.00;;;12.00;58.00;;;;;;1042017;28;20022;-78
2021/03/09 03:19:59;;;;;;;14.57;4.05;;;12.00;58.00;;;;;;1045192;28;20097;-79
2021/03/09 03:20:31;;;;;;;10.88;3.63;;;12.00;58.00;;;;;;1046393;28;21011;-79
2021/03/09 03:21:05;;;;;;;11.60;3.67;;;12.10;58.00;;;;;;1046175;28;20366;-79
2021/03/09 03:21:39;;;;;;;9.05;3.08;;;12.10;57.90;;;;;;1040664;28;20022;-78
2021/03/09 03:22:10;;;;;;;9.90;3.17;;;12.10;57.80;;;;;;1044011;28;20025;-79